createdAt,value
2023-02-19T00:01:01.446Z,98.61
2023-02-19T00:03:27.829Z,98.77
2023-02-19T00:05:54.381Z,99.13
2023-02-19T00:08:20.706Z,99.44
2023-02-19T00:10:47.243Z,99.15
2023-02-19T00:13:13.705Z,99.31
2023-02-19T00:15:40.129Z,99.86
2023-02-19T00:18:06.493Z,99.39
2023-02-19T00:20:33.024Z,99.72
2023-02-19T00:22:59.611Z,99.59
2023-02-19T00:25:25.924Z,99.82
2023-02-19T00:27:52.688Z,100.00
2023-02-19T00:30:19.127Z,99.94
2023-02-19T00:32:50.590Z,99.42
2023-02-19T00:35:16.918Z,99.81
2023-02-19T00:37:43.316Z,99.18
2023-02-19T00:40:09.917Z,98.76
2023-02-19T00:42:36.562Z,99.27
2023-02-19T00:45:03.099Z,98.83
2023-02-19T00:47:29.482Z,98.82
2023-02-19T00:49:55.878Z,99.22
2023-02-19T00:52:22.216Z,99.76
2023-02-19T00:54:48.506Z,99.93
2023-02-19T00:57:14.855Z,99.08
2023-02-19T00:59:41.239Z,98.39
2023-02-19T01:02:07.711Z,98.63
2023-02-19T01:04:34.098Z,98.83
2023-02-19T01:07:00.473Z,99.10
2023-02-19T01:09:26.867Z,98.35
2023-02-19T01:11:53.172Z,98.86
2023-02-19T01:14:19.520Z,98.73
2023-02-19T01:16:45.922Z,98.30
2023-02-19T01:19:12.336Z,98.60
2023-02-19T01:21:40.669Z,98.06
2023-02-19T01:24:07.313Z,98.40
2023-02-19T01:26:34.909Z,99.07
2023-02-19T01:29:02.195Z,98.89
2023-02-19T01:31:29.037Z,98.79
2023-02-19T01:33:59.745Z,98.13
2023-02-19T01:36:27.188Z,98.15
2023-02-19T01:38:54.256Z,98.01
2023-02-19T01:41:23.697Z,97.76
2023-02-19T01:44:04.695Z,98.35
2023-02-19T01:46:42.681Z,97.41
2023-02-19T01:49:23.759Z,97.42
2023-02-19T01:52:21.746Z,98.33
2023-02-19T01:54:49.779Z,98.19
2023-02-19T01:57:21.151Z,98.46
2023-02-19T01:59:52.029Z,98.88
2023-02-19T02:02:18.601Z,98.74
2023-02-19T02:04:45.035Z,98.95
2023-02-19T02:07:11.891Z,99.09
2023-02-19T02:09:38.373Z,98.86
2023-02-19T02:12:05.163Z,98.54
2023-02-19T02:14:35.918Z,97.83
2023-02-19T02:17:30.885Z,97.79
2023-02-19T02:20:03.160Z,97.36
2023-02-19T02:22:51.882Z,97.99
2023-02-19T02:25:34.836Z,96.80
2023-02-19T02:28:19.954Z,97.79
2023-02-19T02:30:56.187Z,97.44
2023-02-19T02:33:39.823Z,97.23
2023-02-19T02:36:16.863Z,97.20
2023-02-19T02:38:45.920Z,96.99
2023-02-19T02:41:14.322Z,97.62
2023-02-19T02:43:41.065Z,97.38
2023-02-19T02:46:11.640Z,97.58
2023-02-19T02:48:47.775Z,97.32
2023-02-19T02:51:24.494Z,97.35
2023-02-19T02:53:56.957Z,97.95
2023-02-19T02:56:25.079Z,97.56
2023-02-19T02:58:53.020Z,97.41
2023-02-19T03:01:30.104Z,96.62
2023-02-19T03:04:11.868Z,97.34
2023-02-19T03:06:39.179Z,97.32
2023-02-19T03:09:11.603Z,97.12
2023-02-19T03:11:41.535Z,97.34
2023-02-19T03:14:15.405Z,97.30
2023-02-19T03:16:45.819Z,97.52
2023-02-19T03:19:16.257Z,97.46
2023-02-19T03:21:46.857Z,97.39
2023-02-19T03:24:14.606Z,97.81
2023-02-19T03:26:43.566Z,97.07
2023-02-19T03:29:11.997Z,96.63
2023-02-19T03:31:40.470Z,96.30
2023-02-19T03:34:13.606Z,97.09
2023-02-19T03:36:45.635Z,97.24
2023-02-19T03:39:17.640Z,96.97
2023-02-19T03:42:02.333Z,97.09
2023-02-19T03:44:44.501Z,97.44
2023-02-19T03:47:20.880Z,97.19
2023-02-19T03:50:17.613Z,96.92
2023-02-19T03:53:05.829Z,97.25
2023-02-19T03:55:38.726Z,97.96
2023-02-19T03:58:31.943Z,97.27
2023-02-19T04:01:22.265Z,97.05
2023-02-19T04:04:08.498Z,97.40
2023-02-19T04:06:37.924Z,97.35
2023-02-19T04:09:08.618Z,97.46
2023-02-19T04:11:38.821Z,97.04
2023-02-19T04:14:23.948Z,96.96
2023-02-19T04:16:55.332Z,97.13
2023-02-19T04:19:25.717Z,97.12
2023-02-19T04:21:54.042Z,96.89
2023-02-19T04:24:49.181Z,97.61
2023-02-19T04:27:19.925Z,98.11
2023-02-19T04:29:46.956Z,98.25
2023-02-19T04:32:14.628Z,97.91
2023-02-19T04:34:41.392Z,97.69
2023-02-19T04:37:08.366Z,97.26
2023-02-19T04:39:34.804Z,97.33
2023-02-19T04:42:01.238Z,98.25
2023-02-19T04:44:27.677Z,98.23
2023-02-19T04:46:54.259Z,97.81
2023-02-19T04:49:20.625Z,98.18
2023-02-19T04:51:47.299Z,97.61
2023-02-19T04:54:13.690Z,96.40
2023-02-19T04:56:40.105Z,96.87
2023-02-19T04:59:06.461Z,97.32
2023-02-19T05:01:32.837Z,97.23
2023-02-19T05:03:59.250Z,96.95
2023-02-19T05:06:25.677Z,96.79
2023-02-19T05:08:55.051Z,96.31
2023-02-19T05:11:21.468Z,96.44
2023-02-19T05:13:47.864Z,96.59
2023-02-19T05:16:15.702Z,96.12
2023-02-19T05:18:43.550Z,96.17
2023-02-19T05:21:11.790Z,95.94
2023-02-19T05:23:38.868Z,95.33
2023-02-19T05:26:12.388Z,95.69
2023-02-19T05:28:38.885Z,95.46
2023-02-19T05:31:08.288Z,95.23
2023-02-19T05:33:35.258Z,95.30
2023-02-19T05:36:07.040Z,95.16
2023-02-19T05:38:33.502Z,95.49
2023-02-19T05:41:17.588Z,95.64
2023-02-19T05:43:45.434Z,95.50
2023-02-19T05:46:14.530Z,95.22
2023-02-19T05:48:41.671Z,94.90
2023-02-19T05:51:11.762Z,95.04
2023-02-19T05:53:38.993Z,94.28
2023-02-19T05:56:29.784Z,94.96
2023-02-19T05:58:57.080Z,94.73
2023-02-19T06:01:26.848Z,94.81
2023-02-19T06:03:57.123Z,94.52
2023-02-19T06:06:23.663Z,94.08
2023-02-19T06:08:50.124Z,94.35
2023-02-19T06:11:17.793Z,93.78
2023-02-19T06:13:45.056Z,93.88
2023-02-19T06:16:12.548Z,94.76
2023-02-19T06:18:39.353Z,94.89
2023-02-19T06:21:09.594Z,94.80
2023-02-19T06:23:38.333Z,94.70
2023-02-19T06:26:13.601Z,94.75
2023-02-19T06:28:41.407Z,95.71
2023-02-19T06:31:09.794Z,96.45
2023-02-19T06:33:37.682Z,96.69
2023-02-19T06:36:04.377Z,96.81
2023-02-19T06:38:31.383Z,97.08
2023-02-19T06:41:02.053Z,97.78
2023-02-19T06:43:28.380Z,97.75
2023-02-19T06:45:59.206Z,98.08
2023-02-19T06:48:26.973Z,98.08
2023-02-19T06:50:54.171Z,98.64
2023-02-19T06:53:20.907Z,98.07
2023-02-19T06:56:22.641Z,98.21
2023-02-19T06:58:49.107Z,98.11
2023-02-19T07:01:15.754Z,98.45
2023-02-19T07:03:45.414Z,98.68
2023-02-19T07:06:12.404Z,98.48
2023-02-19T07:08:38.913Z,98.61
2023-02-19T07:11:05.420Z,98.88
2023-02-19T07:13:32.001Z,98.43
2023-02-19T07:16:00.497Z,98.17
2023-02-19T07:18:27.286Z,98.25
2023-02-19T07:20:53.682Z,97.98
2023-02-19T07:23:22.525Z,97.94
2023-02-19T07:25:49.026Z,98.22
2023-02-19T07:28:15.461Z,97.82
2023-02-19T07:30:41.875Z,98.12
2023-02-19T07:33:10.457Z,98.44
2023-02-19T07:35:37.132Z,97.69
2023-02-19T07:38:03.799Z,98.26
2023-02-19T07:40:30.153Z,98.00
2023-02-19T07:42:59.487Z,97.97
2023-02-19T07:45:25.926Z,97.18
2023-02-19T07:47:52.385Z,96.92
2023-02-19T07:50:18.910Z,97.53
2023-02-19T07:52:45.549Z,97.17
2023-02-19T07:55:11.985Z,96.95
2023-02-19T07:57:38.476Z,97.92
2023-02-19T08:00:05.182Z,97.19
2023-02-19T08:02:31.703Z,97.30
2023-02-19T08:04:58.200Z,96.95
2023-02-19T08:07:24.898Z,97.03
2023-02-19T08:09:51.482Z,95.75
2023-02-19T08:12:18.081Z,96.43
2023-02-19T08:14:44.474Z,96.08
2023-02-19T08:17:10.915Z,96.31
2023-02-19T08:19:37.390Z,95.99
2023-02-19T08:22:03.867Z,96.34
2023-02-19T08:24:30.287Z,96.59
2023-02-19T08:26:56.816Z,95.86
2023-02-19T08:29:23.264Z,96.29
2023-02-19T08:31:49.818Z,96.28
2023-02-19T08:34:16.731Z,96.07
2023-02-19T08:36:43.177Z,96.27
2023-02-19T08:39:09.612Z,95.50
2023-02-19T08:41:35.968Z,96.05
2023-02-19T08:44:02.300Z,96.47
2023-02-19T08:46:28.710Z,95.20
2023-02-19T08:48:55.445Z,95.54
2023-02-19T08:51:22.113Z,95.42
2023-02-19T08:53:48.508Z,95.83
2023-02-19T08:56:17.426Z,95.46
2023-02-19T08:58:44.994Z,95.86
2023-02-19T09:01:14.759Z,95.02
2023-02-19T09:03:41.892Z,93.38
2023-02-19T09:06:14.361Z,93.86
2023-02-19T09:08:40.728Z,93.77
2023-02-19T09:11:07.198Z,93.12
2023-02-19T09:13:33.903Z,93.13
2023-02-19T09:16:00.332Z,93.10
2023-02-19T09:18:26.962Z,92.82
2023-02-19T09:20:53.598Z,93.47
2023-02-19T09:23:20.042Z,92.27
2023-02-19T09:25:46.557Z,93.16
2023-02-19T09:28:12.940Z,92.45
2023-02-19T09:30:39.731Z,93.53
2023-02-19T09:33:06.272Z,92.75
2023-02-19T09:35:34.274Z,92.43
2023-02-19T09:38:01.084Z,91.93
2023-02-19T09:40:27.980Z,91.24
2023-02-19T09:42:54.363Z,91.26
2023-02-19T09:45:25.391Z,92.56
2023-02-19T09:48:00.128Z,91.40
2023-02-19T09:50:48.611Z,92.92
2023-02-19T09:53:17.342Z,92.62
2023-02-19T09:55:44.615Z,92.48
2023-02-19T09:58:34.213Z,93.48
2023-02-19T10:01:04.088Z,92.68
2023-02-19T10:03:35.152Z,93.54
2023-02-19T10:06:24.190Z,92.57
2023-02-19T10:09:18.298Z,92.84
2023-02-19T10:11:45.737Z,90.73
2023-02-19T10:14:37.374Z,90.73
2023-02-19T10:17:05.902Z,89.86
2023-02-19T10:19:35.929Z,90.54
2023-02-19T10:22:11.747Z,90.84
2023-02-19T10:24:40.833Z,91.29
2023-02-19T10:27:14.863Z,91.83
2023-02-19T10:29:45.983Z,91.82
2023-02-19T10:32:13.663Z,92.58
2023-02-19T10:34:40.133Z,92.45
2023-02-19T10:37:13.503Z,93.10
2023-02-19T10:39:46.961Z,92.93
2023-02-19T10:42:23.277Z,93.40
2023-02-19T10:44:57.647Z,94.74
2023-02-19T10:47:26.645Z,94.91
2023-02-19T10:49:57.112Z,95.27
2023-02-19T10:52:28.484Z,94.82
2023-02-19T10:54:57.718Z,94.64
2023-02-19T10:57:27.324Z,95.06
2023-02-19T11:00:15.162Z,95.50
2023-02-19T11:02:43.049Z,94.89
2023-02-19T11:05:09.320Z,94.96
2023-02-19T11:07:37.259Z,94.82
2023-02-19T11:10:05.390Z,95.17
2023-02-19T11:12:34.308Z,95.12
2023-02-19T11:15:19.546Z,95.29
2023-02-19T11:17:54.001Z,95.17
2023-02-19T11:20:20.906Z,94.87
2023-02-19T11:22:47.567Z,96.09
2023-02-19T11:25:13.918Z,95.01
2023-02-19T11:28:06.604Z,95.57
2023-02-19T11:30:40.579Z,94.15
2023-02-19T11:33:16.305Z,94.22
2023-02-19T11:35:44.155Z,94.64
2023-02-19T11:38:12.742Z,93.94
2023-02-19T11:40:41.075Z,94.60
2023-02-19T11:43:35.914Z,92.21
2023-02-19T11:46:15.285Z,92.26
2023-02-19T11:48:51.581Z,92.98
2023-02-19T11:51:52.183Z,92.98
2023-02-19T11:54:27.944Z,91.88
2023-02-19T11:57:22.616Z,92.44
2023-02-19T12:00:16.109Z,91.86
2023-02-19T12:03:01.681Z,92.90
2023-02-19T12:05:42.777Z,92.32
2023-02-19T12:08:18.350Z,91.68
2023-02-19T12:11:24.936Z,91.89
2023-02-19T12:14:08.955Z,92.15
2023-02-19T12:16:50.105Z,91.05
2023-02-19T12:19:31.271Z,91.84
2023-02-19T12:22:21.025Z,91.63
2023-02-19T12:25:05.773Z,91.08
2023-02-19T12:28:07.472Z,91.75
2023-02-19T12:31:12.903Z,91.23
2023-02-19T12:34:17.814Z,91.76
2023-02-19T12:36:59.463Z,92.02
2023-02-19T12:40:04.784Z,93.39
2023-02-19T12:42:50.809Z,93.34
2023-02-19T12:45:26.874Z,93.21
2023-02-19T12:48:14.464Z,92.71
2023-02-19T12:50:43.769Z,92.80
2023-02-19T12:53:41.934Z,93.99
2023-02-19T12:56:14.605Z,94.05
2023-02-19T12:58:51.957Z,94.46
2023-02-19T13:01:25.156Z,93.67
2023-02-19T13:04:17.100Z,94.04
2023-02-19T13:06:52.858Z,93.64
2023-02-19T13:09:28.552Z,93.68
2023-02-19T13:12:20.065Z,92.94
2023-02-19T13:14:57.344Z,93.23
2023-02-19T13:17:37.703Z,93.53
2023-02-19T13:20:35.334Z,92.99
2023-02-19T13:23:08.478Z,93.54
2023-02-19T13:26:06.713Z,93.45
2023-02-19T13:28:51.923Z,93.49
2023-02-19T13:31:21.075Z,93.25
2023-02-19T13:34:09.119Z,93.79
2023-02-19T13:36:36.721Z,93.87
2023-02-19T13:39:06.774Z,94.06
2023-02-19T13:41:50.562Z,94.64
2023-02-19T13:44:25.637Z,94.88
2023-02-19T13:46:51.986Z,94.17
2023-02-19T13:49:28.750Z,94.28
2023-02-19T13:51:57.149Z,94.89
2023-02-19T13:54:28.231Z,95.04
2023-02-19T13:57:19.671Z,94.72
2023-02-19T13:59:47.233Z,95.21
2023-02-19T14:02:22.754Z,94.83
2023-02-19T14:04:53.569Z,95.18
2023-02-19T14:07:51.278Z,94.11
2023-02-19T14:10:42.366Z,94.05
2023-02-19T14:13:09.137Z,93.11
2023-02-19T14:15:49.752Z,93.95
2023-02-19T14:18:42.845Z,92.39
2023-02-19T14:21:22.728Z,92.94
2023-02-19T14:24:15.112Z,90.00
2023-02-19T14:26:42.421Z,89.99
2023-02-19T14:29:13.877Z,91.20
2023-02-19T14:31:45.518Z,88.93
2023-02-19T14:34:22.295Z,89.54
2023-02-19T14:36:55.364Z,89.19
2023-02-19T14:39:27.414Z,89.01
2023-02-19T14:41:58.978Z,89.53
2023-02-19T14:44:32.746Z,89.48
2023-02-19T14:47:06.838Z,88.16
2023-02-19T14:49:49.199Z,87.48
2023-02-19T14:52:27.693Z,86.95
2023-02-19T14:55:00.469Z,85.71
2023-02-19T14:57:34.893Z,88.75
2023-02-19T15:00:21.697Z,87.11
2023-02-19T15:02:53.726Z,87.14
2023-02-19T15:05:27.418Z,87.07
2023-02-19T15:07:57.628Z,87.96
2023-02-19T15:10:29.412Z,86.74
2023-02-19T15:13:02.992Z,88.01
2023-02-19T15:15:35.195Z,89.75
2023-02-19T15:18:03.013Z,88.83
2023-02-19T15:20:33.570Z,87.37
2023-02-19T15:23:02.002Z,88.27
2023-02-19T15:25:38.029Z,89.06
2023-02-19T15:28:23.307Z,89.04
2023-02-19T15:30:50.758Z,88.16
2023-02-19T15:33:18.894Z,89.30
2023-02-19T15:35:57.369Z,89.73
2023-02-19T15:38:24.803Z,89.48
2023-02-19T15:40:51.620Z,88.99
2023-02-19T15:43:47.428Z,89.04
2023-02-19T15:46:22.446Z,88.79
2023-02-19T15:49:02.517Z,88.72
2023-02-19T15:51:40.628Z,89.88
2023-02-19T15:54:17.590Z,89.24
2023-02-19T15:56:49.023Z,89.63
2023-02-19T15:59:24.479Z,90.54
2023-02-19T16:01:51.103Z,89.70
2023-02-19T16:04:18.928Z,90.98
2023-02-19T16:07:02.565Z,90.76
2023-02-19T16:09:36.769Z,92.10
2023-02-19T16:12:19.803Z,91.21
2023-02-19T16:14:46.654Z,91.81
2023-02-19T16:17:17.848Z,91.49
2023-02-19T16:20:00.562Z,91.71
2023-02-19T16:22:31.377Z,92.74
2023-02-19T16:25:02.104Z,93.20
2023-02-19T16:27:30.629Z,93.29
2023-02-19T16:29:57.478Z,91.79
2023-02-19T16:32:23.909Z,92.91
2023-02-19T16:34:51.860Z,92.23
2023-02-19T16:37:36.549Z,92.68
2023-02-19T16:40:08.992Z,92.04
2023-02-19T16:43:04.074Z,91.77
2023-02-19T16:45:30.568Z,91.71
2023-02-19T16:47:57.192Z,91.87
2023-02-19T16:50:25.371Z,92.34
2023-02-19T16:53:00.121Z,92.15
2023-02-19T16:55:27.952Z,91.60
2023-02-19T16:57:55.073Z,91.80
2023-02-19T17:00:27.864Z,92.02
2023-02-19T17:03:00.948Z,91.20
2023-02-19T17:05:29.323Z,91.08
2023-02-19T17:07:55.821Z,91.26
2023-02-19T17:10:25.291Z,91.91
2023-02-19T17:12:53.384Z,91.62
2023-02-19T17:15:20.178Z,91.77
2023-02-19T17:17:46.851Z,90.20
2023-02-19T17:20:20.848Z,90.26
2023-02-19T17:22:47.235Z,90.88
2023-02-19T17:25:13.750Z,89.77
2023-02-19T17:27:40.326Z,90.13
2023-02-19T17:30:21.041Z,90.04
2023-02-19T17:32:47.433Z,90.25
2023-02-19T17:35:16.417Z,90.47
2023-02-19T17:37:42.844Z,89.05
2023-02-19T17:40:33.481Z,88.69
2023-02-19T17:43:00.974Z,89.05
2023-02-19T17:45:28.316Z,89.78
2023-02-19T17:47:54.855Z,89.78
2023-02-19T17:50:24.918Z,89.46
2023-02-19T17:52:51.324Z,89.56
2023-02-19T17:55:18.796Z,89.46
2023-02-19T17:57:46.202Z,88.88
2023-02-19T18:00:18.991Z,89.28
2023-02-19T18:02:47.352Z,88.14
2023-02-19T18:05:14.536Z,88.43
2023-02-19T18:07:41.458Z,88.47
2023-02-19T18:10:08.728Z,86.37
2023-02-19T18:12:35.788Z,87.21
2023-02-19T18:15:02.301Z,88.31
2023-02-19T18:17:28.917Z,87.60
2023-02-19T18:19:55.356Z,87.57
2023-02-19T18:22:21.896Z,88.23
2023-02-19T18:24:50.100Z,89.14
2023-02-19T18:27:17.418Z,88.78
2023-02-19T18:29:44.013Z,88.00
2023-02-19T18:32:10.709Z,88.30
2023-02-19T18:34:37.162Z,87.33
2023-02-19T18:37:03.791Z,88.34
2023-02-19T18:39:32.772Z,88.82
2023-02-19T18:42:01.482Z,88.95
2023-02-19T18:44:29.765Z,89.44
2023-02-19T18:46:58.827Z,89.06
2023-02-19T18:49:28.487Z,88.38
2023-02-19T18:51:55.981Z,88.53
2023-02-19T18:54:23.026Z,88.58
2023-02-19T18:56:53.343Z,88.99
2023-02-19T18:59:20.276Z,88.91
2023-02-19T19:01:47.128Z,88.96
2023-02-19T19:04:16.001Z,89.86
2023-02-19T19:06:42.901Z,91.08
2023-02-19T19:09:10.885Z,90.46
2023-02-19T19:11:37.618Z,90.58
2023-02-19T19:14:04.642Z,91.29
2023-02-19T19:16:31.231Z,91.88
2023-02-19T19:18:57.897Z,91.92
2023-02-19T19:21:24.658Z,92.30
2023-02-19T19:23:51.615Z,92.18
2023-02-19T19:26:22.571Z,92.70
2023-02-19T19:28:49.474Z,92.47
2023-02-19T19:31:18.143Z,93.59
2023-02-19T19:33:48.005Z,93.46
2023-02-19T19:36:18.757Z,93.73
2023-02-19T19:38:47.603Z,93.62
2023-02-19T19:41:15.382Z,93.84
2023-02-19T19:43:42.247Z,93.38
2023-02-19T19:46:08.687Z,94.24
2023-02-19T19:48:35.485Z,93.96
2023-02-19T19:51:02.028Z,94.32
2023-02-19T19:53:28.527Z,94.49
2023-02-19T19:55:54.881Z,94.96
2023-02-19T19:58:21.407Z,94.11
2023-02-19T20:00:47.904Z,95.08
2023-02-19T20:03:14.363Z,94.79
2023-02-19T20:05:40.929Z,94.95
2023-02-19T20:08:08.008Z,94.28
2023-02-19T20:10:36.796Z,94.33
2023-02-19T20:13:03.327Z,94.91
2023-02-19T20:15:30.165Z,94.97
2023-02-19T20:17:56.594Z,94.95
2023-02-19T20:20:24.111Z,95.05
2023-02-19T20:22:51.561Z,95.38
2023-02-19T20:25:23.389Z,95.33
2023-02-19T20:27:51.283Z,95.81
2023-02-19T20:30:20.510Z,96.10
2023-02-19T20:32:48.290Z,96.65
2023-02-19T20:35:16.277Z,96.64
2023-02-19T20:37:42.769Z,96.44
2023-02-19T20:40:12.042Z,95.88
2023-02-19T20:42:38.717Z,95.63
2023-02-19T20:45:05.583Z,96.29
2023-02-19T20:47:32.977Z,96.97
2023-02-19T20:49:59.318Z,96.53
2023-02-19T20:52:25.877Z,95.85
2023-02-19T20:54:56.570Z,96.17
2023-02-19T20:57:24.425Z,95.83
2023-02-19T20:59:50.804Z,96.26
2023-02-19T21:02:27.197Z,96.36
2023-02-19T21:04:53.619Z,96.62
2023-02-19T21:07:20.143Z,96.82
2023-02-19T21:09:46.451Z,97.43
2023-02-19T21:12:13.311Z,96.97
2023-02-19T21:14:40.469Z,97.74
2023-02-19T21:17:07.021Z,97.37
2023-02-19T21:19:33.796Z,97.43
2023-02-19T21:22:00.161Z,97.04
2023-02-19T21:24:26.565Z,97.54
2023-02-19T21:26:52.900Z,97.15
2023-02-19T21:29:22.347Z,97.57
2023-02-19T21:31:55.118Z,97.69
2023-02-19T21:34:24.950Z,97.63
2023-02-19T21:36:51.896Z,97.59
2023-02-19T21:39:20.880Z,97.58
2023-02-19T21:41:47.288Z,97.54
2023-02-19T21:44:14.139Z,98.11
2023-02-19T21:46:40.753Z,98.06
2023-02-19T21:49:07.451Z,98.59
2023-02-19T21:51:38.882Z,98.36
2023-02-19T21:54:06.810Z,98.66
2023-02-19T21:56:36.343Z,98.46
2023-02-19T21:59:03.785Z,98.02
2023-02-19T22:01:35.794Z,98.19
2023-02-19T22:04:02.383Z,97.77
2023-02-19T22:06:30.603Z,97.97
2023-02-19T22:08:57.849Z,98.55
2023-02-19T22:11:24.330Z,98.54
2023-02-19T22:13:51.177Z,97.85
2023-02-19T22:16:18.093Z,97.88
2023-02-19T22:18:52.941Z,98.33
2023-02-19T22:21:21.364Z,98.18
2023-02-19T22:23:49.305Z,98.04
2023-02-19T22:26:26.457Z,98.63
2023-02-19T22:28:53.347Z,98.50
2023-02-19T22:31:22.813Z,98.71
2023-02-19T22:33:49.778Z,98.55
2023-02-19T22:36:19.671Z,98.21
2023-02-19T22:38:46.819Z,98.70
2023-02-19T22:41:16.418Z,98.37
2023-02-19T22:43:43.217Z,98.61
2023-02-19T22:46:13.692Z,98.33
2023-02-19T22:48:40.678Z,98.38
2023-02-19T22:51:12.162Z,98.34
2023-02-19T22:53:59.620Z,98.27
2023-02-19T22:56:28.126Z,97.66
2023-02-19T22:58:57.189Z,97.91
2023-02-19T23:01:24.658Z,97.79
2023-02-19T23:03:56.776Z,97.98
2023-02-19T23:06:29.525Z,97.93
2023-02-19T23:08:57.295Z,97.87
2023-02-19T23:11:26.098Z,97.97
2023-02-19T23:13:52.986Z,98.07
2023-02-19T23:16:20.633Z,97.97
2023-02-19T23:18:47.139Z,97.91
2023-02-19T23:21:13.707Z,97.94
2023-02-19T23:23:44.402Z,97.45
2023-02-19T23:26:12.431Z,97.47
2023-02-19T23:28:40.440Z,97.11
2023-02-19T23:31:07.199Z,97.02
2023-02-19T23:33:33.917Z,96.44
2023-02-19T23:36:00.352Z,96.81
2023-02-19T23:38:26.761Z,96.87
2023-02-19T23:40:53.177Z,96.54
2023-02-19T23:43:19.897Z,96.97
2023-02-19T23:45:46.614Z,96.81
2023-02-19T23:48:13.573Z,96.21
2023-02-19T23:50:39.967Z,96.41
2023-02-19T23:53:06.676Z,96.54
2023-02-19T23:55:33.049Z,95.99
2023-02-19T23:57:59.597Z,96.42
